San Marin, California
Current Conditions -  °F | °C
As of 1:15 PM on Tuesday 21 Oct 2014 (Local Time) from KDVO Reporting Station
NA  
Wind Chill: 72°   Ceiling: NA
Heat Index: 72°   Visibility: NA
Dew Point: 43°   Wind: 8mph
Humidity: 35%   Direction: 340°NNW
Pressure: 30.07"   Gusts: NA
Location:  38.1262°N, 122.559°W
Report Text: KDVO 212015Z AUTO 34007KT 22/06 A3007 RMK AO2
Loading
Personal Weather Stations






























Interactive Weather Map
Tropical Storm Tracking
New forecast layout! Learn more

10-Day Weather Forecast

Advertisements
Track Severe Weather on mobile